sensor_id;sensor_type;location;lat;lon;timestamp;pressure;altitude;pressure_sealevel;temperature;humidity
69247;BME280;56358;56.328;43.992;2024-03-02T00:01:26;102043.03;;;-0.04;85.12
69247;BME280;56358;56.328;43.992;2024-03-02T00:03:27;102070.16;;;0.11;85.15
69247;BME280;56358;56.328;43.992;2024-03-02T00:05:27;102077.97;;;0.19;85.45
69247;BME280;56358;56.328;43.992;2024-03-02T00:07:28;102074.44;;;0.21;85.15
69247;BME280;56358;56.328;43.992;2024-03-02T00:09:29;102081.47;;;0.21;85.07
69247;BME280;56358;56.328;43.992;2024-03-02T00:11:34;102085.88;;;0.19;85.22
69247;BME280;56358;56.328;43.992;2024-03-02T00:13:36;102053.47;;;0.07;84.98
69247;BME280;56358;56.328;43.992;2024-03-02T00:15:42;102006.28;;;-0.24;85.21
69247;BME280;56358;56.328;43.992;2024-03-02T00:17:46;102100.00;;;0.18;85.28
69247;BME280;56358;56.328;43.992;2024-03-02T00:19:47;102078.84;;;0.21;85.60
69247;BME280;56358;56.328;43.992;2024-03-02T00:21:47;102096.44;;;0.22;85.65
69247;BME280;56358;56.328;43.992;2024-03-02T00:23:48;102081.44;;;0.24;85.35
69247;BME280;56358;56.328;43.992;2024-03-02T00:25:54;101996.66;;;-0.28;85.21
69247;BME280;56358;56.328;43.992;2024-03-02T00:27:55;102062.19;;;0.15;85.27
69247;BME280;56358;56.328;43.992;2024-03-02T00:29:56;102084.97;;;0.23;85.02
69247;BME280;56358;56.328;43.992;2024-03-02T00:31:57;102073.59;;;0.19;85.11
69247;BME280;56358;56.328;43.992;2024-03-02T00:34:01;102087.56;;;0.29;84.96
69247;BME280;56358;56.328;43.992;2024-03-02T00:36:05;102029.88;;;-0.10;84.40
69247;BME280;56358;56.328;43.992;2024-03-02T00:38:07;102083.25;;;0.20;84.80
69247;BME280;56358;56.328;43.992;2024-03-02T00:40:08;102081.53;;;0.18;84.80
69247;BME280;56358;56.328;43.992;2024-03-02T00:42:10;102081.53;;;0.14;85.17
69247;BME280;56358;56.328;43.992;2024-03-02T00:44:12;102065.81;;;0.02;85.81
69247;BME280;56358;56.328;43.992;2024-03-02T00:46:16;102081.53;;;0.14;85.54
69247;BME280;56358;56.328;43.992;2024-03-02T00:48:18;102113.13;;;0.21;85.36
69247;BME280;56358;56.328;43.992;2024-03-02T00:50:18;102092.00;;;0.24;85.49
69247;BME280;56358;56.328;43.992;2024-03-02T00:52:19;102084.16;;;0.18;85.39
69247;BME280;56358;56.328;43.992;2024-03-02T00:54:29;102116.63;;;0.24;85.40
69247;BME280;56358;56.328;43.992;2024-03-02T00:56:31;101978.34;;;-0.45;85.43
69247;BME280;56358;56.328;43.992;2024-03-02T00:58:32;102098.16;;;0.24;85.44
69247;BME280;56358;56.328;43.992;2024-03-02T01:00:33;102030.78;;;-0.14;85.56
69247;BME280;56358;56.328;43.992;2024-03-02T01:02:34;102096.41;;;0.23;85.84
69247;BME280;56358;56.328;43.992;2024-03-02T01:04:34;102090.25;;;0.24;85.72
69247;BME280;56358;56.328;43.992;2024-03-02T01:06:35;102095.50;;;0.26;85.58
69247;BME280;56358;56.328;43.992;2024-03-02T01:08:37;102095.50;;;0.26;85.67
69247;BME280;56358;56.328;43.992;2024-03-02T01:10:38;102092.91;;;0.24;85.87
69247;BME280;56358;56.328;43.992;2024-03-02T01:12:38;102023.81;;;-0.20;85.69
69247;BME280;56358;56.328;43.992;2024-03-02T01:14:39;102017.75;;;-0.28;85.72
69247;BME280;56358;56.328;43.992;2024-03-02T01:16:40;102099.91;;;0.24;85.92
69247;BME280;56358;56.328;43.992;2024-03-02T01:18:41;101898.03;;;-1.03;86.09
69247;BME280;56358;56.328;43.992;2024-03-02T01:20:42;102108.72;;;0.23;86.28
69247;BME280;56358;56.328;43.992;2024-03-02T01:22:43;102102.63;;;0.18;86.19
69247;BME280;56358;56.328;43.992;2024-03-02T01:24:44;102105.22;;;0.21;86.55
69247;BME280;56358;56.328;43.992;2024-03-02T01:26:44;102109.63;;;0.22;86.49
69247;BME280;56358;56.328;43.992;2024-03-02T01:28:45;102112.22;;;0.25;86.36
69247;BME280;56358;56.328;43.992;2024-03-02T01:30:46;102103.44;;;0.26;86.63
69247;BME280;56358;56.328;43.992;2024-03-02T01:32:47;102112.19;;;0.28;86.57
69247;BME280;56358;56.328;43.992;2024-03-02T01:34:47;102110.47;;;0.24;86.30
69247;BME280;56358;56.328;43.992;2024-03-02T01:36:48;102118.34;;;0.28;86.31
69247;BME280;56358;56.328;43.992;2024-03-02T01:38:49;102130.66;;;0.28;86.50
69247;BME280;56358;56.328;43.992;2024-03-02T01:40:50;102122.75;;;0.28;86.53
69247;BME280;56358;56.328;43.992;2024-03-02T01:42:53;102018.63;;;-0.30;86.30
69247;BME280;56358;56.328;43.992;2024-03-02T01:44:59;102120.13;;;0.25;86.52
69247;BME280;56358;56.328;43.992;2024-03-02T01:47:00;102112.25;;;0.22;86.60
69247;BME280;56358;56.328;43.992;2024-03-02T01:49:01;102121.91;;;0.23;86.66
69247;BME280;56358;56.328;43.992;2024-03-02T01:51:02;102124.53;;;0.23;86.60
69247;BME280;56358;56.328;43.992;2024-03-02T01:53:04;102064.22;;;-0.16;86.45
69247;BME280;56358;56.328;43.992;2024-03-02T01:55:05;102129.81;;;0.26;86.22
69247;BME280;56358;56.328;43.992;2024-03-02T01:57:07;102128.91;;;0.25;86.22
69247;BME280;56358;56.328;43.992;2024-03-02T01:59:08;102090.44;;;-0.01;86.00
69247;BME280;56358;56.328;43.992;2024-03-02T02:01:09;102122.78;;;0.23;86.08
69247;BME280;56358;56.328;43.992;2024-03-02T02:03:10;102119.28;;;0.24;85.75
69247;BME280;56358;56.328;43.992;2024-03-02T02:05:11;101952.19;;;-0.71;85.31
69247;BME280;56358;56.328;43.992;2024-03-02T02:07:11;102121.00;;;0.25;85.17
69247;BME280;56358;56.328;43.992;2024-03-02T02:09:14;102137.72;;;0.23;85.21
69247;BME280;56358;56.328;43.992;2024-03-02T02:11:16;102137.75;;;0.21;85.15
69247;BME280;56358;56.328;43.992;2024-03-02T02:13:17;102129.81;;;0.21;85.25
69247;BME280;56358;56.328;43.992;2024-03-02T02:15:30;102124.56;;;0.20;85.17
69247;BME280;56358;56.328;43.992;2024-03-02T02:17:32;102121.91;;;0.23;85.05
69247;BME280;56358;56.328;43.992;2024-03-02T02:19:33;102113.09;;;0.25;85.11
69247;BME280;56358;56.328;43.992;2024-03-02T02:21:34;102116.63;;;0.26;85.03
69247;BME280;56358;56.328;43.992;2024-03-02T02:23:34;102113.06;;;0.28;84.89
69247;BME280;56358;56.328;43.992;2024-03-02T02:25:35;102107.00;;;0.20;84.69
69247;BME280;56358;56.328;43.992;2024-03-02T02:27:36;102104.31;;;0.25;84.49
69247;BME280;56358;56.328;43.992;2024-03-02T02:29:37;102115.72;;;0.25;84.46
69247;BME280;56358;56.328;43.992;2024-03-02T02:31:39;102128.91;;;0.28;84.42
69247;BME280;56358;56.328;43.992;2024-03-02T02:33:40;102101.75;;;0.15;84.49
69247;BME280;56358;56.328;43.992;2024-03-02T02:35:41;102028.19;;;-0.20;84.42
69247;BME280;56358;56.328;43.992;2024-03-02T02:37:43;102090.34;;;0.12;84.56
69247;BME280;56358;56.328;43.992;2024-03-02T02:39:44;102116.63;;;0.24;84.38
69247;BME280;56358;56.328;43.992;2024-03-02T02:41:47;102121.00;;;0.25;84.65
69247;BME280;56358;56.328;43.992;2024-03-02T02:43:47;102124.53;;;0.26;84.74
69247;BME280;56358;56.328;43.992;2024-03-02T02:45:48;102039.66;;;-0.23;84.83
69247;BME280;56358;56.328;43.992;2024-03-02T02:47:49;102118.34;;;0.25;84.66
69247;BME280;56358;56.328;43.992;2024-03-02T02:49:50;102100.88;;;0.12;84.75
69247;BME280;56358;56.328;43.992;2024-03-02T02:51:50;102118.38;;;0.27;84.56
69247;BME280;56358;56.328;43.992;2024-03-02T02:53:52;102136.84;;;0.27;84.62
69247;BME280;56358;56.328;43.992;2024-03-02T02:55:53;102130.72;;;0.22;84.31
69247;BME280;56358;56.328;43.992;2024-03-02T02:57:53;102136.06;;;0.12;84.07
69247;BME280;56358;56.328;43.992;2024-03-02T02:59:54;101976.75;;;-0.68;84.13
69247;BME280;56358;56.328;43.992;2024-03-02T03:01:54;102132.44;;;0.26;84.29
69247;BME280;56358;56.328;43.992;2024-03-02T03:03:55;102128.09;;;0.22;84.31
69247;BME280;56358;56.328;43.992;2024-03-02T03:05:56;102124.56;;;0.20;84.14
69247;BME280;56358;56.328;43.992;2024-03-02T03:07:57;102125.44;;;0.19;84.45
69247;BME280;56358;56.328;43.992;2024-03-02T03:09:57;102108.84;;;0.09;84.16
69247;BME280;56358;56.328;43.992;2024-03-02T03:11:58;102120.19;;;0.17;84.59
69247;BME280;56358;56.328;43.992;2024-03-02T03:13:59;102117.56;;;0.20;84.68
69247;BME280;56358;56.328;43.992;2024-03-02T03:16:00;102119.28;;;0.20;84.36
69247;BME280;56358;56.328;43.992;2024-03-02T03:18:01;102019.59;;;-0.42;84.21
69247;BME280;56358;56.328;43.992;2024-03-02T03:20:04;102125.47;;;0.20;84.40
69247;BME280;56358;56.328;43.992;2024-03-02T03:22:06;102119.28;;;0.20;84.50
69247;BME280;56358;56.328;43.992;2024-03-02T03:24:07;102121.94;;;0.20;84.44
69247;BME280;56358;56.328;43.992;2024-03-02T03:26:07;102093.91;;;0.06;84.35
69247;BME280;56358;56.328;43.992;2024-03-02T03:28:08;102032.69;;;-0.30;84.40
69247;BME280;56358;56.328;43.992;2024-03-02T03:30:12;102114.94;;;0.14;84.47
69247;BME280;56358;56.328;43.992;2024-03-02T03:32:13;102120.19;;;0.20;84.51
69247;BME280;56358;56.328;43.992;2024-03-02T03:34:14;102124.56;;;0.20;84.85
69247;BME280;56358;56.328;43.992;2024-03-02T03:36:16;102111.47;;;0.10;84.69
69247;BME280;56358;56.328;43.992;2024-03-02T03:38:16;102137.72;;;0.23;84.53
69247;BME280;56358;56.328;43.992;2024-03-02T03:40:17;102129.81;;;0.21;84.42
69247;BME280;56358;56.328;43.992;2024-03-02T03:42:19;102060.78;;;-0.29;84.41
69247;BME280;56358;56.328;43.992;2024-03-02T03:44:19;102136.88;;;0.21;84.43
69247;BME280;56358;56.328;43.992;2024-03-02T03:46:20;102143.91;;;0.23;84.23
69247;BME280;56358;56.328;43.992;2024-03-02T03:48:21;102136.88;;;0.21;84.13
69247;BME280;56358;56.328;43.992;2024-03-02T03:50:21;102138.63;;;0.22;84.02
69247;BME280;56358;56.328;43.992;2024-03-02T03:52:22;102124.63;;;0.12;84.37
69247;BME280;56358;56.328;43.992;2024-03-02T03:54:23;102143.94;;;0.20;84.43
69247;BME280;56358;56.328;43.992;2024-03-02T03:56:23;102143.09;;;0.15;84.43
69247;BME280;56358;56.328;43.992;2024-03-02T03:58:24;102158.81;;;0.23;84.45
69247;BME280;56358;56.328;43.992;2024-03-02T04:00:25;102153.56;;;0.21;84.72
69247;BME280;56358;56.328;43.992;2024-03-02T04:02:25;102150.09;;;0.19;84.50
69247;BME280;56358;56.328;43.992;2024-03-02T04:04:26;102172.03;;;0.24;84.15
69247;BME280;56358;56.328;43.992;2024-03-02T04:06:27;102157.97;;;0.21;84.31
69247;BME280;56358;56.328;43.992;2024-03-02T04:08:28;102159.78;;;0.14;83.93
69247;BME280;56358;56.328;43.992;2024-03-02T04:10:28;102162.44;;;0.09;84.38
69247;BME280;56358;56.328;43.992;2024-03-02T04:12:30;102161.63;;;0.06;84.91
69247;BME280;56358;56.328;43.992;2024-03-02T04:14:31;102163.34;;;0.05;85.17
69247;BME280;56358;56.328;43.992;2024-03-02T04:16:31;102162.50;;;0.05;85.40
69247;BME280;56358;56.328;43.992;2024-03-02T04:18:32;102168.66;;;0.07;85.61
69247;BME280;56358;56.328;43.992;2024-03-02T04:20:33;102058.31;;;-0.51;85.31
69247;BME280;56358;56.328;43.992;2024-03-02T04:22:34;102158.94;;;0.10;85.62
69247;BME280;56358;56.328;43.992;2024-03-02T04:24:35;102166.84;;;0.10;85.37
69247;BME280;56358;56.328;43.992;2024-03-02T04:26:36;102097.69;;;-0.29;85.23
69247;BME280;56358;56.328;43.992;2024-03-02T04:28:37;102165.09;;;0.08;85.42
69247;BME280;56358;56.328;43.992;2024-03-02T04:30:38;102170.34;;;0.12;85.60
69247;BME280;56358;56.328;43.992;2024-03-02T04:32:38;102171.22;;;0.13;85.44
69247;BME280;56358;56.328;43.992;2024-03-02T04:34:39;102173.84;;;0.14;85.17
69247;BME280;56358;56.328;43.992;2024-03-02T04:36:40;102175.63;;;0.14;85.08
69247;BME280;56358;56.328;43.992;2024-03-02T04:38:41;102169.47;;;0.13;85.07
69247;BME280;56358;56.328;43.992;2024-03-02T04:40:41;102143.22;;;-0.07;85.03
69247;BME280;56358;56.328;43.992;2024-03-02T04:42:42;102185.25;;;0.18;85.25
69247;BME280;56358;56.328;43.992;2024-03-02T04:44:43;102180.88;;;0.20;85.26
69247;BME280;56358;56.328;43.992;2024-03-02T04:46:44;102173.81;;;0.19;85.24
69247;BME280;56358;56.328;43.992;2024-03-02T04:48:44;102142.25;;;0.08;85.23
69247;BME280;56358;56.328;43.992;2024-03-02T04:50:45;102161.47;;;0.23;84.87
69247;BME280;56358;56.328;43.992;2024-03-02T04:52:46;102164.09;;;0.26;84.52
69247;BME280;56358;56.328;43.992;2024-03-02T04:54:46;102165.84;;;0.28;84.55
69247;BME280;56358;56.328;43.992;2024-03-02T04:57:06;102168.44;;;0.31;84.49
69247;BME280;56358;56.328;43.992;2024-03-02T04:59:06;102090.56;;;-0.13;84.38
69247;BME280;56358;56.328;43.992;2024-03-02T05:01:07;102172.81;;;0.34;84.23
69247;BME280;56358;56.328;43.992;2024-03-02T05:03:08;102147.47;;;0.13;83.97
69247;BME280;56358;56.328;43.992;2024-03-02T05:05:08;102170.19;;;0.34;83.97
69247;BME280;56358;56.328;43.992;2024-03-02T05:07:09;102168.41;;;0.35;84.14
69247;BME280;56358;56.328;43.992;2024-03-02T05:09:10;102154.38;;;0.29;84.28
69247;BME280;56358;56.328;43.992;2024-03-02T05:11:11;102170.13;;;0.39;84.54
69247;BME280;56358;56.328;43.992;2024-03-02T05:13:50;102164.03;;;0.35;84.18
69247;BME280;56358;56.328;43.992;2024-03-02T05:15:51;102170.13;;;0.39;84.21
69247;BME280;56358;56.328;43.992;2024-03-02T05:17:52;102178.97;;;0.38;84.47
69247;BME280;56358;56.328;43.992;2024-03-02T05:19:53;102146.53;;;0.23;84.35
69247;BME280;56358;56.328;43.992;2024-03-02T05:21:54;102069.50;;;-0.21;84.46
69247;BME280;56358;56.328;43.992;2024-03-02T05:23:54;102156.13;;;0.32;84.34
69247;BME280;56358;56.328;43.992;2024-03-02T05:25:55;102185.94;;;0.43;84.38
69247;BME280;56358;56.328;43.992;2024-03-02T05:27:56;102157.03;;;0.31;84.27
69247;BME280;56358;56.328;43.992;2024-03-02T05:29:57;102191.22;;;0.45;84.08
69247;BME280;56358;56.328;43.992;2024-03-02T05:31:58;102113.25;;;0.08;84.17
69247;BME280;56358;56.328;43.992;2024-03-02T05:33:59;102080.84;;;-0.08;84.13
69247;BME280;56358;56.328;43.992;2024-03-02T05:36:00;102189.44;;;0.48;84.34
69247;BME280;56358;56.328;43.992;2024-03-02T05:38:02;102115.84;;;0.13;84.13
69247;BME280;56358;56.328;43.992;2024-03-02T05:40:03;102170.00;;;0.54;84.15
69247;BME280;56358;56.328;43.992;2024-03-02T05:42:06;102172.63;;;0.56;84.08
69247;BME280;56358;56.328;43.992;2024-03-02T05:44:06;102191.06;;;0.59;84.21
69247;BME280;56358;56.328;43.992;2024-03-02T05:46:07;102176.13;;;0.61;83.91
69247;BME280;56358;56.328;43.992;2024-03-02T05:48:08;102192.78;;;0.63;83.77
69247;BME280;56358;56.328;43.992;2024-03-02T05:50:09;102184.84;;;0.68;83.92
69247;BME280;56358;56.328;43.992;2024-03-02T05:52:10;102191.88;;;0.69;83.76
69247;BME280;56358;56.328;43.992;2024-03-02T05:54:12;102169.06;;;0.60;83.55
69247;BME280;56358;56.328;43.992;2024-03-02T05:56:13;102188.25;;;0.79;83.37
69247;BME280;56358;56.328;43.992;2024-03-02T05:58:14;102126.16;;;0.41;82.91
69247;BME280;56358;56.328;43.992;2024-03-02T06:00:46;102113.06;;;0.30;83.01
69247;BME280;56358;56.328;43.992;2024-03-02T06:02:47;102198.78;;;0.83;83.24
69247;BME280;56358;56.328;43.992;2024-03-02T06:04:48;102202.25;;;0.89;83.09
69247;BME280;56358;56.328;43.992;2024-03-02T06:06:49;102203.16;;;0.86;82.85
69247;BME280;56358;56.328;43.992;2024-03-02T06:08:50;102207.53;;;0.89;82.79
69247;BME280;56358;56.328;43.992;2024-03-02T06:10:51;102208.38;;;0.92;82.84
69247;BME280;56358;56.328;43.992;2024-03-02T06:12:51;102210.94;;;1.00;82.82
69247;BME280;56358;56.328;43.992;2024-03-02T06:14:52;102206.53;;;1.00;82.90
69247;BME280;56358;56.328;43.992;2024-03-02T06:16:53;102217.06;;;1.04;82.28
69247;BME280;56358;56.328;43.992;2024-03-02T06:18:54;102213.47;;;1.09;82.18
69247;BME280;56358;56.328;43.992;2024-03-02T06:20:54;102217.00;;;1.10;81.75
69247;BME280;56358;56.328;43.992;2024-03-02T06:22:55;102184.75;;;0.78;81.44
69247;BME280;56358;56.328;43.992;2024-03-02T06:24:56;102217.88;;;1.10;81.76
69247;BME280;56358;56.328;43.992;2024-03-02T06:26:57;102212.63;;;1.09;81.78
69247;BME280;56358;56.328;43.992;2024-03-02T06:28:57;102213.56;;;1.00;81.58
69247;BME280;56358;56.328;43.992;2024-03-02T06:30:58;102206.50;;;1.04;81.61
69247;BME280;56358;56.328;43.992;2024-03-02T06:32:59;102214.31;;;1.14;81.59
69247;BME280;56358;56.328;43.992;2024-03-02T06:34:59;102224.88;;;1.14;81.27
69247;BME280;56358;56.328;43.992;2024-03-02T06:37:00;102218.69;;;1.17;81.42
69247;BME280;56358;56.328;43.992;2024-03-02T06:39:01;102216.94;;;1.16;81.14
69247;BME280;56358;56.328;43.992;2024-03-02T06:41:02;102137.25;;;0.75;81.43
69247;BME280;56358;56.328;43.992;2024-03-02T06:43:03;102216.00;;;1.20;81.13
69247;BME280;56358;56.328;43.992;2024-03-02T06:45:04;102222.16;;;1.24;81.16
69247;BME280;56358;56.328;43.992;2024-03-02T06:47:06;102226.53;;;1.26;80.99
69247;BME280;56358;56.328;43.992;2024-03-02T06:49:07;102192.41;;;1.05;80.92
69247;BME280;56358;56.328;43.992;2024-03-02T06:51:08;102231.75;;;1.31;80.58
69247;BME280;56358;56.328;43.992;2024-03-02T06:53:08;102231.75;;;1.31;80.29
69247;BME280;56358;56.328;43.992;2024-03-02T06:55:09;102165.25;;;0.92;80.52
69247;BME280;56358;56.328;43.992;2024-03-02T06:57:10;102229.09;;;1.31;80.52
69247;BME280;56358;56.328;43.992;2024-03-02T06:59:10;102223.81;;;1.31;80.28
69247;BME280;56358;56.328;43.992;2024-03-02T07:01:11;102149.44;;;0.89;80.14
69247;BME280;56358;56.328;43.992;2024-03-02T07:03:12;102214.09;;;1.34;79.89
69247;BME280;56358;56.328;43.992;2024-03-02T07:05:12;102222.81;;;1.41;79.94
69247;BME280;56358;56.328;43.992;2024-03-02T07:07:13;102237.69;;;1.50;79.76
69247;BME280;56358;56.328;43.992;2024-03-02T07:09:14;102168.53;;;1.12;79.40
69247;BME280;56358;56.328;43.992;2024-03-02T07:11:14;102231.44;;;1.57;79.26
69247;BME280;56358;56.328;43.992;2024-03-02T07:13:15;102210.47;;;1.45;79.23
69247;BME280;56358;56.328;43.992;2024-03-02T07:15:16;102237.56;;;1.59;79.37
69247;BME280;56358;56.328;43.992;2024-03-02T07:17:30;102225.28;;;1.58;78.84
69247;BME280;56358;56.328;43.992;2024-03-02T07:19:31;102216.53;;;1.50;78.91
69247;BME280;56358;56.328;43.992;2024-03-02T07:21:31;102227.91;;;1.57;78.67
69247;BME280;56358;56.328;43.992;2024-03-02T07:23:34;102234.97;;;1.56;78.93
69247;BME280;56358;56.328;43.992;2024-03-02T07:25:34;102242.03;;;1.57;78.89
69247;BME280;56358;56.328;43.992;2024-03-02T07:27:35;102232.31;;;1.58;78.80
69247;BME280;56358;56.328;43.992;2024-03-02T07:29:36;102134.38;;;0.98;78.88
69247;BME280;56358;56.328;43.992;2024-03-02T07:31:37;102132.59;;;0.99;78.75
69247;BME280;56358;56.328;43.992;2024-03-02T07:33:37;102237.56;;;1.62;78.54
69247;BME280;56358;56.328;43.992;2024-03-02T07:35:38;102239.25;;;1.68;78.54
69247;BME280;56358;56.328;43.992;2024-03-02T07:37:39;102244.44;;;1.76;78.07
69247;BME280;56358;56.328;43.992;2024-03-02T07:39:41;102225.84;;;1.80;78.04
69247;BME280;56358;56.328;43.992;2024-03-02T07:41:42;102227.59;;;1.83;77.39
69247;BME280;56358;56.328;43.992;2024-03-02T07:43:42;102212.63;;;1.80;77.44
69247;BME280;56358;56.328;43.992;2024-03-02T07:45:45;102165.25;;;1.63;77.18
69247;BME280;56358;56.328;43.992;2024-03-02T07:47:46;102165.97;;;1.76;76.72
69247;BME280;56358;56.328;43.992;2024-03-02T07:49:47;102201.69;;;2.07;76.47
69247;BME280;56358;56.328;43.992;2024-03-02T07:51:47;102241.09;;;2.27;76.12
69247;BME280;56358;56.328;43.992;2024-03-02T07:53:48;102216.47;;;2.22;75.76
69247;BME280;56358;56.328;43.992;2024-03-02T07:55:49;102226.06;;;2.27;75.60
69247;BME280;56358;56.328;43.992;2024-03-02T07:57:50;102228.69;;;2.29;75.71
69247;BME280;56358;56.328;43.992;2024-03-02T07:59:51;102204.31;;;2.08;75.61
69247;BME280;56358;56.328;43.992;2024-03-02T08:01:52;102226.16;;;2.23;75.64
69247;BME280;56358;56.328;43.992;2024-03-02T08:03:56;102233.28;;;2.17;75.63
69247;BME280;56358;56.328;43.992;2024-03-02T08:05:58;102229.78;;;2.15;75.56
69247;BME280;56358;56.328;43.992;2024-03-02T08:07:59;102228.94;;;2.13;75.83
69247;BME280;56358;56.328;43.992;2024-03-02T08:10:01;102170.41;;;1.76;75.88
69247;BME280;56358;56.328;43.992;2024-03-02T08:12:01;102229.97;;;2.03;75.98
69247;BME280;56358;56.328;43.992;2024-03-02T08:14:02;102161.78;;;1.61;76.17
69247;BME280;56358;56.328;43.992;2024-03-02T08:16:04;102194.06;;;1.83;76.17
69247;BME280;56358;56.328;43.992;2024-03-02T08:18:07;102152.81;;;1.73;75.98
69247;BME280;56358;56.328;43.992;2024-03-02T08:20:09;102235.81;;;2.24;75.72
69247;BME280;56358;56.328;43.992;2024-03-02T08:22:10;102229.63;;;2.28;75.45
69247;BME280;56358;56.328;43.992;2024-03-02T08:24:11;102218.06;;;2.33;75.44
69247;BME280;56358;56.328;43.992;2024-03-02T08:26:12;102164.72;;;2.00;74.88
69247;BME280;56358;56.328;43.992;2024-03-02T08:28:12;102248.75;;;2.44;74.58
69247;BME280;56358;56.328;43.992;2024-03-02T08:30:13;102218.97;;;2.31;74.66
69247;BME280;56358;56.328;43.992;2024-03-02T08:32:14;102230.22;;;2.44;74.97
69247;BME280;56358;56.328;43.992;2024-03-02T08:34:17;102227.56;;;2.44;74.82
69247;BME280;56358;56.328;43.992;2024-03-02T08:36:18;102158.31;;;2.15;74.43
69247;BME280;56358;56.328;43.992;2024-03-02T08:38:20;102229.22;;;2.53;74.17
69247;BME280;56358;56.328;43.992;2024-03-02T08:40:21;102220.41;;;2.52;74.17
69247;BME280;56358;56.328;43.992;2024-03-02T08:42:22;102225.81;;;2.44;74.13
69247;BME280;56358;56.328;43.992;2024-03-02T08:44:23;102226.72;;;2.43;73.83
69247;BME280;56358;56.328;43.992;2024-03-02T08:46:24;102224.91;;;2.47;74.10
69247;BME280;56358;56.328;43.992;2024-03-02T08:48:25;102225.56;;;2.61;73.81
69247;BME280;56358;56.328;43.992;2024-03-02T08:50:26;102140.53;;;2.27;72.96
69247;BME280;56358;56.328;43.992;2024-03-02T08:52:26;102225.19;;;2.83;72.45
69247;BME280;56358;56.328;43.992;2024-03-02T08:54:27;102202.34;;;2.77;72.50
69247;BME280;56358;56.328;43.992;2024-03-02T08:56:28;102226.69;;;2.98;72.04
69247;BME280;56358;56.328;43.992;2024-03-02T08:58:29;102225.50;;;3.13;71.35
69247;BME280;56358;56.328;43.992;2024-03-02T09:00:29;102235.53;;;3.44;70.49
69247;BME280;56358;56.328;43.992;2024-03-02T09:02:30;102221.16;;;3.56;69.76
69247;BME280;56358;56.328;43.992;2024-03-02T09:04:31;102131.13;;;3.07;69.72
69247;BME280;56358;56.328;43.992;2024-03-02T09:06:32;102147.75;;;3.14;69.32
69247;BME280;56358;56.328;43.992;2024-03-02T09:08:32;102148.22;;;3.34;69.03
69247;BME280;56358;56.328;43.992;2024-03-02T09:10:33;102133.09;;;3.40;68.69
69247;BME280;56358;56.328;43.992;2024-03-02T09:12:34;102219.66;;;3.84;67.65
69247;BME280;56358;56.328;43.992;2024-03-02T09:14:36;102234.84;;;3.78;68.07
69247;BME280;56358;56.328;43.992;2024-03-02T09:16:37;102218.19;;;3.71;68.07
69247;BME280;56358;56.328;43.992;2024-03-02T09:18:38;102133.63;;;3.15;68.64
69247;BME280;56358;56.328;43.992;2024-03-02T09:20:39;102221.00;;;3.63;68.51
69247;BME280;56358;56.328;43.992;2024-03-02T09:22:39;102143.25;;;3.19;68.59
69247;BME280;56358;56.328;43.992;2024-03-02T09:24:41;102224.66;;;3.56;68.40
69247;BME280;56358;56.328;43.992;2024-03-02T09:26:42;102222.94;;;3.55;68.49
69247;BME280;56358;56.328;43.992;2024-03-02T09:28:43;102225.63;;;3.52;67.80
69247;BME280;56358;56.328;43.992;2024-03-02T09:30:44;102223.09;;;3.47;67.86
69247;BME280;56358;56.328;43.992;2024-03-02T09:32:45;102228.59;;;3.37;67.89
69247;BME280;56358;56.328;43.992;2024-03-02T09:34:46;102213.75;;;3.28;68.14
69247;BME280;56358;56.328;43.992;2024-03-02T09:36:50;102201.00;;;3.00;68.32
69247;BME280;56358;56.328;43.992;2024-03-02T09:38:52;102228.19;;;3.11;68.21
69247;BME280;56358;56.328;43.992;2024-03-02T09:40:52;102231.94;;;2.99;68.66
69247;BME280;56358;56.328;43.992;2024-03-02T09:42:54;102224.69;;;3.09;68.36
69247;BME280;56358;56.328;43.992;2024-03-02T09:44:55;102226.25;;;3.21;67.86
69247;BME280;56358;56.328;43.992;2024-03-02T09:46:56;102208.50;;;3.25;67.57
69247;BME280;56358;56.328;43.992;2024-03-02T09:48:56;102231.91;;;3.48;67.22
69247;BME280;56358;56.328;43.992;2024-03-02T09:50:57;102238.97;;;3.49;66.41
69247;BME280;56358;56.328;43.992;2024-03-02T09:52:59;102228.34;;;3.49;66.69
69247;BME280;56358;56.328;43.992;2024-03-02T09:55:00;102223.94;;;3.48;66.55
69247;BME280;56358;56.328;43.992;2024-03-02T09:57:01;102244.41;;;3.41;66.33
69247;BME280;56358;56.328;43.992;2024-03-02T09:59:02;102229.03;;;3.15;66.67
69247;BME280;56358;56.328;43.992;2024-03-02T10:01:06;102235.97;;;3.21;66.92
69247;BME280;56358;56.328;43.992;2024-03-02T10:03:12;102240.38;;;3.20;67.47
69247;BME280;56358;56.328;43.992;2024-03-02T10:05:13;102214.19;;;3.05;67.61
69247;BME280;56358;56.328;43.992;2024-03-02T10:07:23;102164.28;;;2.80;67.68
69247;BME280;56358;56.328;43.992;2024-03-02T10:09:27;102160.84;;;2.76;67.46
69247;BME280;56358;56.328;43.992;2024-03-02T10:11:34;102244.38;;;2.97;68.00
69247;BME280;56358;56.328;43.992;2024-03-02T10:13:37;102235.78;;;2.83;68.47
69247;BME280;56358;56.328;43.992;2024-03-02T10:15:39;102245.53;;;2.79;68.78
69247;BME280;56358;56.328;43.992;2024-03-02T10:17:43;102189.91;;;2.28;69.43
69247;BME280;56358;56.328;43.992;2024-03-02T10:19:43;102258.13;;;2.65;69.47
69247;BME280;56358;56.328;43.992;2024-03-02T10:21:51;102225.59;;;2.58;69.45
69247;BME280;56358;56.328;43.992;2024-03-02T10:23:52;102246.56;;;2.72;69.79
69247;BME280;56358;56.328;43.992;2024-03-02T10:25:53;102248.19;;;2.79;69.55
69247;BME280;56358;56.328;43.992;2024-03-02T10:27:57;102237.69;;;2.73;69.55
69247;BME280;56358;56.328;43.992;2024-03-02T10:29:58;102235.03;;;2.73;69.52
69247;BME280;56358;56.328;43.992;2024-03-02T10:32:02;102234.38;;;2.60;69.58
69247;BME280;56358;56.328;43.992;2024-03-02T10:34:03;102233.50;;;2.60;69.91
69247;BME280;56358;56.328;43.992;2024-03-02T10:36:04;102237.88;;;2.64;69.68